sensor_id;sensor_type;location;lat;lon;timestamp;temperature;humidity
983;DHT22;480;48.124;11.578;2023-07-13T00:00:10;19.70;99.90
983;DHT22;480;48.124;11.578;2023-07-13T00:02:37;19.70;99.90
983;DHT22;480;48.124;11.578;2023-07-13T00:05:05;19.60;99.90
983;DHT22;480;48.124;11.578;2023-07-13T00:07:33;19.60;99.90
983;DHT22;480;48.124;11.578;2023-07-13T00:10:00;19.60;99.90
983;DHT22;480;48.124;11.578;2023-07-13T00:12:30;19.70;99.90
983;DHT22;480;48.124;11.578;2023-07-13T00:14:57;19.70;99.90
983;DHT22;480;48.124;11.578;2023-07-13T00:17:26;19.70;99.90
983;DHT22;480;48.124;11.578;2023-07-13T00:19:53;19.60;99.90
983;DHT22;480;48.124;11.578;2023-07-13T00:22:21;19.70;99.90
983;DHT22;480;48.124;11.578;2023-07-13T00:24:51;19.70;99.90
983;DHT22;480;48.124;11.578;2023-07-13T00:27:18;19.50;99.90
983;DHT22;480;48.124;11.578;2023-07-13T00:29:45;19.60;99.90
983;DHT22;480;48.124;11.578;2023-07-13T00:32:12;19.50;99.90
983;DHT22;480;48.124;11.578;2023-07-13T00:34:39;19.40;99.90
983;DHT22;480;48.124;11.578;2023-07-13T00:37:07;19.50;99.90
983;DHT22;480;48.124;11.578;2023-07-13T00:39:34;19.70;99.90
983;DHT22;480;48.124;11.578;2023-07-13T00:42:03;19.70;99.90
983;DHT22;480;48.124;11.578;2023-07-13T00:44:31;19.70;99.90
983;DHT22;480;48.124;11.578;2023-07-13T00:46:58;19.80;99.90
983;DHT22;480;48.124;11.578;2023-07-13T00:49:27;19.80;99.90
983;DHT22;480;48.124;11.578;2023-07-13T00:51:58;19.80;99.90
983;DHT22;480;48.124;11.578;2023-07-13T00:54:30;19.70;99.90
983;DHT22;480;48.124;11.578;2023-07-13T00:57:02;19.80;99.90
983;DHT22;480;48.124;11.578;2023-07-13T00:59:31;19.80;99.90
983;DHT22;480;48.124;11.578;2023-07-13T01:02:02;19.90;99.90
983;DHT22;480;48.124;11.578;2023-07-13T01:04:29;19.90;99.90
983;DHT22;480;48.124;11.578;2023-07-13T01:06:56;19.90;99.90
983;DHT22;480;48.124;11.578;2023-07-13T01:09:25;19.80;99.90
983;DHT22;480;48.124;11.578;2023-07-13T01:11:52;19.90;99.90
983;DHT22;480;48.124;11.578;2023-07-13T01:14:19;20.00;99.90
983;DHT22;480;48.124;11.578;2023-07-13T01:16:49;20.00;99.90
983;DHT22;480;48.124;11.578;2023-07-13T01:19:29;19.90;99.90
983;DHT22;480;48.124;11.578;2023-07-13T01:22:03;19.80;99.90
983;DHT22;480;48.124;11.578;2023-07-13T01:24:30;19.70;99.90
983;DHT22;480;48.124;11.578;2023-07-13T01:26:57;19.70;99.90
983;DHT22;480;48.124;11.578;2023-07-13T01:29:24;19.60;99.90
983;DHT22;480;48.124;11.578;2023-07-13T01:31:51;19.70;99.90
983;DHT22;480;48.124;11.578;2023-07-13T01:34:18;19.70;99.90
983;DHT22;480;48.124;11.578;2023-07-13T01:36:45;19.80;99.90
983;DHT22;480;48.124;11.578;2023-07-13T01:39:13;19.80;99.90
983;DHT22;480;48.124;11.578;2023-07-13T01:41:42;19.80;99.90
983;DHT22;480;48.124;11.578;2023-07-13T01:44:09;19.70;99.90
983;DHT22;480;48.124;11.578;2023-07-13T01:46:36;19.80;99.90
983;DHT22;480;48.124;11.578;2023-07-13T01:49:03;19.90;99.90
983;DHT22;480;48.124;11.578;2023-07-13T01:51:30;20.00;99.90
983;DHT22;480;48.124;11.578;2023-07-13T01:53:57;19.90;99.90
983;DHT22;480;48.124;11.578;2023-07-13T01:56:25;20.00;99.90
983;DHT22;480;48.124;11.578;2023-07-13T01:58:52;20.10;99.90
983;DHT22;480;48.124;11.578;2023-07-13T02:01:19;20.10;99.90
983;DHT22;480;48.124;11.578;2023-07-13T02:03:46;20.00;99.90
983;DHT22;480;48.124;11.578;2023-07-13T02:06:13;19.80;99.90
983;DHT22;480;48.124;11.578;2023-07-13T02:08:41;19.80;99.90
983;DHT22;480;48.124;11.578;2023-07-13T02:11:08;19.80;99.90
983;DHT22;480;48.124;11.578;2023-07-13T02:13:37;19.80;99.90
983;DHT22;480;48.124;11.578;2023-07-13T02:16:04;19.90;99.90
983;DHT22;480;48.124;11.578;2023-07-13T02:18:32;20.00;99.90
983;DHT22;480;48.124;11.578;2023-07-13T02:20:59;20.00;99.90
983;DHT22;480;48.124;11.578;2023-07-13T02:23:26;20.10;99.90
983;DHT22;480;48.124;11.578;2023-07-13T02:25:55;20.10;99.90
983;DHT22;480;48.124;11.578;2023-07-13T02:28:22;20.10;99.90
983;DHT22;480;48.124;11.578;2023-07-13T02:30:50;20.20;99.90
983;DHT22;480;48.124;11.578;2023-07-13T02:33:17;20.20;99.90
983;DHT22;480;48.124;11.578;2023-07-13T02:35:44;20.10;99.90
983;DHT22;480;48.124;11.578;2023-07-13T02:38:11;20.20;99.90
983;DHT22;480;48.124;11.578;2023-07-13T02:40:38;20.20;99.90
983;DHT22;480;48.124;11.578;2023-07-13T02:43:05;20.10;99.90
983;DHT22;480;48.124;11.578;2023-07-13T02:45:32;20.10;99.90
983;DHT22;480;48.124;11.578;2023-07-13T02:48:00;20.10;99.90
983;DHT22;480;48.124;11.578;2023-07-13T02:50:27;20.10;99.90
983;DHT22;480;48.124;11.578;2023-07-13T02:52:54;20.00;99.90
983;DHT22;480;48.124;11.578;2023-07-13T02:55:21;19.90;99.90
983;DHT22;480;48.124;11.578;2023-07-13T02:57:48;19.90;99.90
983;DHT22;480;48.124;11.578;2023-07-13T03:00:16;19.80;99.90
983;DHT22;480;48.124;11.578;2023-07-13T03:02:43;19.70;99.90
983;DHT22;480;48.124;11.578;2023-07-13T03:05:12;19.40;99.90
983;DHT22;480;48.124;11.578;2023-07-13T03:07:40;19.20;99.90
983;DHT22;480;48.124;11.578;2023-07-13T03:10:08;19.20;99.90
983;DHT22;480;48.124;11.578;2023-07-13T03:12:35;19.10;99.90
983;DHT22;480;48.124;11.578;2023-07-13T03:15:03;18.90;99.90
983;DHT22;480;48.124;11.578;2023-07-13T03:17:30;18.80;99.90
983;DHT22;480;48.124;11.578;2023-07-13T03:19:57;18.60;99.90
983;DHT22;480;48.124;11.578;2023-07-13T03:22:25;18.60;99.90
983;DHT22;480;48.124;11.578;2023-07-13T03:24:52;18.60;99.90
983;DHT22;480;48.124;11.578;2023-07-13T03:27:21;18.60;99.90
983;DHT22;480;48.124;11.578;2023-07-13T03:29:48;18.60;99.90
983;DHT22;480;48.124;11.578;2023-07-13T03:32:15;18.50;99.90
983;DHT22;480;48.124;11.578;2023-07-13T03:34:42;18.40;99.90
983;DHT22;480;48.124;11.578;2023-07-13T03:37:09;18.40;99.90
983;DHT22;480;48.124;11.578;2023-07-13T03:39:37;18.30;99.90
983;DHT22;480;48.124;11.578;2023-07-13T03:42:05;18.30;99.90
983;DHT22;480;48.124;11.578;2023-07-13T03:44:32;18.30;99.90
983;DHT22;480;48.124;11.578;2023-07-13T03:46:59;18.40;99.90
983;DHT22;480;48.124;11.578;2023-07-13T03:49:25;18.40;99.90
983;DHT22;480;48.124;11.578;2023-07-13T03:51:52;18.50;99.90
983;DHT22;480;48.124;11.578;2023-07-13T03:54:19;18.50;99.90
983;DHT22;480;48.124;11.578;2023-07-13T03:56:48;18.40;99.90
983;DHT22;480;48.124;11.578;2023-07-13T03:59:15;18.50;99.90
983;DHT22;480;48.124;11.578;2023-07-13T04:01:43;18.60;99.90
983;DHT22;480;48.124;11.578;2023-07-13T04:04:10;18.70;99.90
983;DHT22;480;48.124;11.578;2023-07-13T04:06:37;18.80;99.90
983;DHT22;480;48.124;11.578;2023-07-13T04:09:04;18.90;99.90
983;DHT22;480;48.124;11.578;2023-07-13T04:11:32;18.90;99.90
983;DHT22;480;48.124;11.578;2023-07-13T04:14:03;18.80;99.90
983;DHT22;480;48.124;11.578;2023-07-13T04:16:30;18.80;99.90
983;DHT22;480;48.124;11.578;2023-07-13T04:18:57;18.80;99.90
983;DHT22;480;48.124;11.578;2023-07-13T04:21:26;18.60;99.90
983;DHT22;480;48.124;11.578;2023-07-13T04:23:53;18.70;99.90
983;DHT22;480;48.124;11.578;2023-07-13T04:26:21;18.70;99.90
983;DHT22;480;48.124;11.578;2023-07-13T04:28:49;18.60;99.90
983;DHT22;480;48.124;11.578;2023-07-13T04:31:17;18.80;99.90
983;DHT22;480;48.124;11.578;2023-07-13T04:33:44;18.80;99.90
983;DHT22;480;48.124;11.578;2023-07-13T04:36:11;18.70;99.90
983;DHT22;480;48.124;11.578;2023-07-13T04:38:38;18.90;99.90
983;DHT22;480;48.124;11.578;2023-07-13T04:41:07;19.00;99.90
983;DHT22;480;48.124;11.578;2023-07-13T04:43:35;19.00;99.90
983;DHT22;480;48.124;11.578;2023-07-13T04:46:06;19.00;99.90
983;DHT22;480;48.124;11.578;2023-07-13T04:48:34;18.90;99.90
983;DHT22;480;48.124;11.578;2023-07-13T04:51:02;18.70;99.90
983;DHT22;480;48.124;11.578;2023-07-13T04:53:30;18.70;99.90
983;DHT22;480;48.124;11.578;2023-07-13T04:55:57;18.80;99.90
983;DHT22;480;48.124;11.578;2023-07-13T04:58:25;18.80;99.90
983;DHT22;480;48.124;11.578;2023-07-13T05:00:52;18.80;99.90
983;DHT22;480;48.124;11.578;2023-07-13T05:03:20;18.90;99.90
983;DHT22;480;48.124;11.578;2023-07-13T05:05:57;18.80;99.90
983;DHT22;480;48.124;11.578;2023-07-13T05:08:24;18.80;99.90
983;DHT22;480;48.124;11.578;2023-07-13T05:10:51;18.80;99.90
983;DHT22;480;48.124;11.578;2023-07-13T05:13:19;18.80;99.90
983;DHT22;480;48.124;11.578;2023-07-13T05:15:52;18.80;99.90
983;DHT22;480;48.124;11.578;2023-07-13T05:18:24;18.70;99.90
983;DHT22;480;48.124;11.578;2023-07-13T05:21:00;18.60;99.90
983;DHT22;480;48.124;11.578;2023-07-13T05:23:31;18.60;99.90
983;DHT22;480;48.124;11.578;2023-07-13T05:25:59;18.70;99.90
983;DHT22;480;48.124;11.578;2023-07-13T05:28:27;18.60;99.90
983;DHT22;480;48.124;11.578;2023-07-13T05:30:54;18.70;99.90
983;DHT22;480;48.124;11.578;2023-07-13T05:33:21;18.60;99.90
983;DHT22;480;48.124;11.578;2023-07-13T05:35:48;18.60;99.90
983;DHT22;480;48.124;11.578;2023-07-13T05:38:17;18.60;99.90
983;DHT22;480;48.124;11.578;2023-07-13T05:40:44;18.60;99.90
983;DHT22;480;48.124;11.578;2023-07-13T05:43:12;18.70;99.90
983;DHT22;480;48.124;11.578;2023-07-13T05:45:39;18.70;99.90
983;DHT22;480;48.124;11.578;2023-07-13T05:48:06;18.90;99.90
983;DHT22;480;48.124;11.578;2023-07-13T05:50:33;18.80;99.90
983;DHT22;480;48.124;11.578;2023-07-13T05:53:00;18.90;99.90
983;DHT22;480;48.124;11.578;2023-07-13T05:55:28;18.90;99.90
983;DHT22;480;48.124;11.578;2023-07-13T05:57:55;18.90;99.90
983;DHT22;480;48.124;11.578;2023-07-13T06:00:23;19.00;99.90
983;DHT22;480;48.124;11.578;2023-07-13T06:02:50;19.10;99.90
983;DHT22;480;48.124;11.578;2023-07-13T06:05:17;19.00;99.90
983;DHT22;480;48.124;11.578;2023-07-13T06:07:44;19.10;99.90
983;DHT22;480;48.124;11.578;2023-07-13T06:10:11;19.20;99.90
983;DHT22;480;48.124;11.578;2023-07-13T06:12:40;19.20;99.90
983;DHT22;480;48.124;11.578;2023-07-13T06:15:08;19.20;99.90
983;DHT22;480;48.124;11.578;2023-07-13T06:17:35;19.20;99.90
983;DHT22;480;48.124;11.578;2023-07-13T06:20:02;19.40;99.90
983;DHT22;480;48.124;11.578;2023-07-13T06:22:29;19.30;99.90
983;DHT22;480;48.124;11.578;2023-07-13T06:24:56;19.20;99.90
983;DHT22;480;48.124;11.578;2023-07-13T06:27:23;19.40;99.90
983;DHT22;480;48.124;11.578;2023-07-13T06:29:51;19.50;99.90
983;DHT22;480;48.124;11.578;2023-07-13T06:32:18;19.50;99.90
983;DHT22;480;48.124;11.578;2023-07-13T06:34:45;19.60;99.90
983;DHT22;480;48.124;11.578;2023-07-13T06:37:12;19.70;99.90
983;DHT22;480;48.124;11.578;2023-07-13T06:39:39;19.60;99.90
983;DHT22;480;48.124;11.578;2023-07-13T06:42:06;19.70;99.90
983;DHT22;480;48.124;11.578;2023-07-13T06:44:33;19.90;99.90
983;DHT22;480;48.124;11.578;2023-07-13T06:47:02;19.90;99.90
983;DHT22;480;48.124;11.578;2023-07-13T06:49:29;20.00;99.90
983;DHT22;480;48.124;11.578;2023-07-13T06:51:56;20.10;99.90
983;DHT22;480;48.124;11.578;2023-07-13T06:54:23;20.10;99.90
983;DHT22;480;48.124;11.578;2023-07-13T06:56:49;20.10;99.90
983;DHT22;480;48.124;11.578;2023-07-13T06:59:16;20.20;99.90
983;DHT22;480;48.124;11.578;2023-07-13T07:01:43;20.20;99.90
983;DHT22;480;48.124;11.578;2023-07-13T07:04:11;20.30;99.90
983;DHT22;480;48.124;11.578;2023-07-13T07:06:38;20.30;99.90
983;DHT22;480;48.124;11.578;2023-07-13T07:09:05;20.40;99.90
983;DHT22;480;48.124;11.578;2023-07-13T07:11:32;20.30;99.90
983;DHT22;480;48.124;11.578;2023-07-13T07:13:59;20.40;99.90
983;DHT22;480;48.124;11.578;2023-07-13T07:16:26;20.10;99.90
983;DHT22;480;48.124;11.578;2023-07-13T07:18:53;20.10;99.90
983;DHT22;480;48.124;11.578;2023-07-13T07:21:21;20.10;99.90
983;DHT22;480;48.124;11.578;2023-07-13T07:23:49;20.10;99.90
983;DHT22;480;48.124;11.578;2023-07-13T07:26:16;20.00;99.90
983;DHT22;480;48.124;11.578;2023-07-13T07:28:42;19.90;99.90
983;DHT22;480;48.124;11.578;2023-07-13T07:31:10;19.70;99.90
983;DHT22;480;48.124;11.578;2023-07-13T07:33:37;19.80;99.90
983;DHT22;480;48.124;11.578;2023-07-13T07:36:04;19.70;99.90
983;DHT22;480;48.124;11.578;2023-07-13T07:38:33;19.60;99.90
983;DHT22;480;48.124;11.578;2023-07-13T07:41:02;19.60;99.90
983;DHT22;480;48.124;11.578;2023-07-13T07:43:30;19.60;99.90
983;DHT22;480;48.124;11.578;2023-07-13T07:45:57;19.60;99.90
983;DHT22;480;48.124;11.578;2023-07-13T07:48:24;19.50;99.90
983;DHT22;480;48.124;11.578;2023-07-13T07:50:51;19.60;99.90
983;DHT22;480;48.124;11.578;2023-07-13T07:53:18;19.60;99.90
983;DHT22;480;48.124;11.578;2023-07-13T07:55:46;19.60;99.90
983;DHT22;480;48.124;11.578;2023-07-13T07:58:14;19.60;99.90
983;DHT22;480;48.124;11.578;2023-07-13T08:00:41;19.60;99.90
983;DHT22;480;48.124;11.578;2023-07-13T08:03:09;19.60;99.90
983;DHT22;480;48.124;11.578;2023-07-13T08:05:36;19.70;99.90
983;DHT22;480;48.124;11.578;2023-07-13T08:08:04;19.60;99.90
983;DHT22;480;48.124;11.578;2023-07-13T08:10:31;19.60;99.90
983;DHT22;480;48.124;11.578;2023-07-13T08:12:59;19.50;99.90
983;DHT22;480;48.124;11.578;2023-07-13T08:15:26;19.30;99.90
983;DHT22;480;48.124;11.578;2023-07-13T08:17:53;19.20;99.90
983;DHT22;480;48.124;11.578;2023-07-13T08:20:20;19.20;99.90
983;DHT22;480;48.124;11.578;2023-07-13T08:22:47;19.30;99.90
983;DHT22;480;48.124;11.578;2023-07-13T08:25:14;19.30;99.90
983;DHT22;480;48.124;11.578;2023-07-13T08:27:41;19.30;99.90
983;DHT22;480;48.124;11.578;2023-07-13T08:30:10;19.40;99.90
983;DHT22;480;48.124;11.578;2023-07-13T08:32:37;19.30;99.90
983;DHT22;480;48.124;11.578;2023-07-13T08:35:05;19.30;99.90
983;DHT22;480;48.124;11.578;2023-07-13T08:37:32;19.40;99.90
983;DHT22;480;48.124;11.578;2023-07-13T08:39:59;19.40;99.90
983;DHT22;480;48.124;11.578;2023-07-13T08:42:35;19.20;99.90
983;DHT22;480;48.124;11.578;2023-07-13T08:45:19;19.20;99.90
983;DHT22;480;48.124;11.578;2023-07-13T08:47:50;19.10;99.90
983;DHT22;480;48.124;11.578;2023-07-13T08:50:22;19.10;99.90
983;DHT22;480;48.124;11.578;2023-07-13T08:52:51;19.30;99.90
983;DHT22;480;48.124;11.578;2023-07-13T08:55:21;19.40;99.90
983;DHT22;480;48.124;11.578;2023-07-13T08:57:53;19.40;99.90
983;DHT22;480;48.124;11.578;2023-07-13T09:00:25;19.50;99.90
983;DHT22;480;48.124;11.578;2023-07-13T09:03:00;19.50;99.90
983;DHT22;480;48.124;11.578;2023-07-13T09:05:31;19.70;99.90
983;DHT22;480;48.124;11.578;2023-07-13T09:08:12;19.70;99.90
983;DHT22;480;48.124;11.578;2023-07-13T09:10:45;19.80;99.90
983;DHT22;480;48.124;11.578;2023-07-13T09:13:22;19.90;99.90
983;DHT22;480;48.124;11.578;2023-07-13T09:15:53;19.90;99.90
983;DHT22;480;48.124;11.578;2023-07-13T09:18:26;19.90;99.90
983;DHT22;480;48.124;11.578;2023-07-13T09:20:57;20.00;99.90
983;DHT22;480;48.124;11.578;2023-07-13T09:23:27;20.20;99.90
983;DHT22;480;48.124;11.578;2023-07-13T09:26:01;20.20;99.90
983;DHT22;480;48.124;11.578;2023-07-13T09:28:39;20.20;99.90
983;DHT22;480;48.124;11.578;2023-07-13T09:31:13;20.30;99.90
983;DHT22;480;48.124;11.578;2023-07-13T09:33:40;20.40;99.90
983;DHT22;480;48.124;11.578;2023-07-13T09:36:19;20.40;99.90
983;DHT22;480;48.124;11.578;2023-07-13T09:38:48;20.40;99.90
983;DHT22;480;48.124;11.578;2023-07-13T09:41:23;20.50;99.90
983;DHT22;480;48.124;11.578;2023-07-13T09:44:10;20.80;99.90
983;DHT22;480;48.124;11.578;2023-07-13T09:46:45;20.80;99.90
983;DHT22;480;48.124;11.578;2023-07-13T09:49:12;20.90;99.90
983;DHT22;480;48.124;11.578;2023-07-13T09:51:41;20.80;99.90
983;DHT22;480;48.124;11.578;2023-07-13T09:54:18;21.00;99.90
983;DHT22;480;48.124;11.578;2023-07-13T09:56:45;20.90;99.90
983;DHT22;480;48.124;11.578;2023-07-13T09:59:19;21.00;99.90
983;DHT22;480;48.124;11.578;2023-07-13T10:01:48;21.20;99.90
983;DHT22;480;48.124;11.578;2023-07-13T10:04:18;21.20;99.90
983;DHT22;480;48.124;11.578;2023-07-13T10:06:46;21.40;99.90
983;DHT22;480;48.124;11.578;2023-07-13T10:09:15;21.40;99.90
983;DHT22;480;48.124;11.578;2023-07-13T10:11:44;21.60;99.90
983;DHT22;480;48.124;11.578;2023-07-13T10:14:15;21.60;99.90
983;DHT22;480;48.124;11.578;2023-07-13T10:16:45;21.70;99.90
983;DHT22;480;48.124;11.578;2023-07-13T10:19:17;21.80;99.90
983;DHT22;480;48.124;11.578;2023-07-13T10:21:50;22.00;99.90
983;DHT22;480;48.124;11.578;2023-07-13T10:24:23;22.10;99.90
983;DHT22;480;48.124;11.578;2023-07-13T10:26:56;22.40;99.90
983;DHT22;480;48.124;11.578;2023-07-13T10:29:34;22.30;99.90
983;DHT22;480;48.124;11.578;2023-07-13T10:32:04;22.50;99.90
983;DHT22;480;48.124;11.578;2023-07-13T10:34:37;22.70;99.90
983;DHT22;480;48.124;11.578;2023-07-13T10:37:05;22.50;99.90
983;DHT22;480;48.124;11.578;2023-07-13T10:39:35;22.50;99.90
983;DHT22;480;48.124;11.578;2023-07-13T10:42:05;22.60;99.90
983;DHT22;480;48.124;11.578;2023-07-13T10:44:33;22.70;99.90
983;DHT22;480;48.124;11.578;2023-07-13T10:47:02;22.70;99.90
983;DHT22;480;48.124;11.578;2023-07-13T10:49:32;22.50;99.90
983;DHT22;480;48.124;11.578;2023-07-13T10:52:02;22.70;99.90
983;DHT22;480;48.124;11.578;2023-07-13T10:54:31;22.60;99.90
983;DHT22;480;48.124;11.578;2023-07-13T10:57:16;22.70;99.90
983;DHT22;480;48.124;11.578;2023-07-13T10:59:46;22.90;99.90
983;DHT22;480;48.124;11.578;2023-07-13T11:02:23;23.00;99.90
983;DHT22;480;48.124;11.578;2023-07-13T11:04:53;23.00;99.90
983;DHT22;480;48.124;11.578;2023-07-13T11:07:24;23.20;99.90
983;DHT22;480;48.124;11.578;2023-07-13T11:09:52;23.40;99.90
983;DHT22;480;48.124;11.578;2023-07-13T11:12:28;23.30;99.90
983;DHT22;480;48.124;11.578;2023-07-13T11:15:28;23.20;99.90
983;DHT22;480;48.124;11.578;2023-07-13T11:17:56;23.30;99.90
983;DHT22;480;48.124;11.578;2023-07-13T11:20:37;23.80;99.90
983;DHT22;480;48.124;11.578;2023-07-13T11:23:26;23.90;99.90
983;DHT22;480;48.124;11.578;2023-07-13T11:25:53;24.00;99.90
983;DHT22;480;48.124;11.578;2023-07-13T11:28:24;23.70;99.90
983;DHT22;480;48.124;11.578;2023-07-13T11:31:01;23.60;99.90
983;DHT22;480;48.124;11.578;2023-07-13T11:33:52;23.50;99.90
983;DHT22;480;48.124;11.578;2023-07-13T11:36:21;24.00;99.90
983;DHT22;480;48.124;11.578;2023-07-13T11:39:00;24.30;99.90
983;DHT22;480;48.124;11.578;2023-07-13T11:41:31;24.10;99.90
983;DHT22;480;48.124;11.578;2023-07-13T11:44:05;24.40;99.90
983;DHT22;480;48.124;11.578;2023-07-13T11:46:33;24.80;99.90
983;DHT22;480;48.124;11.578;2023-07-13T11:49:00;25.30;99.90
983;DHT22;480;48.124;11.578;2023-07-13T11:51:30;25.70;99.90
983;DHT22;480;48.124;11.578;2023-07-13T11:54:03;25.60;99.90
983;DHT22;480;48.124;11.578;2023-07-13T11:56:31;25.70;99.90
983;DHT22;480;48.124;11.578;2023-07-13T11:59:04;25.90;99.90
983;DHT22;480;48.124;11.578;2023-07-13T12:01:32;25.50;99.90
983;DHT22;480;48.124;11.578;2023-07-13T12:04:01;25.60;99.90
983;DHT22;480;48.124;11.578;2023-07-13T12:06:30;25.60;99.90
983;DHT22;480;48.124;11.578;2023-07-13T12:09:00;25.80;99.90
983;DHT22;480;48.124;11.578;2023-07-13T12:11:29;26.20;99.90
983;DHT22;480;48.124;11.578;2023-07-13T12:13:56;26.60;99.90
983;DHT22;480;48.124;11.578;2023-07-13T12:16:27;26.30;99.10
983;DHT22;480;48.124;11.578;2023-07-13T12:18:56;26.40;99.10
983;DHT22;480;48.124;11.578;2023-07-13T12:21:31;26.10;99.90
983;DHT22;480;48.124;11.578;2023-07-13T12:24:00;25.50;99.90
983;DHT22;480;48.124;11.578;2023-07-13T12:26:30;25.50;99.90
983;DHT22;480;48.124;11.578;2023-07-13T12:28:59;25.60;99.90
983;DHT22;480;48.124;11.578;2023-07-13T12:31:33;25.70;99.90
983;DHT22;480;48.124;11.578;2023-07-13T12:34:02;25.70;99.90
983;DHT22;480;48.124;11.578;2023-07-13T12:36:34;25.40;99.90
983;DHT22;480;48.124;11.578;2023-07-13T12:39:13;25.10;99.90
983;DHT22;480;48.124;11.578;2023-07-13T12:41:41;25.20;99.90
983;DHT22;480;48.124;11.578;2023-07-13T12:44:11;25.40;99.90
983;DHT22;480;48.124;11.578;2023-07-13T12:46:39;25.50;99.90
983;DHT22;480;48.124;11.578;2023-07-13T12:49:07;25.40;99.90
983;DHT22;480;48.124;11.578;2023-07-13T12:51:35;25.50;99.90
983;DHT22;480;48.124;11.578;2023-07-13T12:54:15;25.40;99.90
983;DHT22;480;48.124;11.578;2023-07-13T12:56:43;25.60;99.90
983;DHT22;480;48.124;11.578;2023-07-13T12:59:16;25.90;99.90
983;DHT22;480;48.124;11.578;2023-07-13T13:01:46;26.10;99.90
983;DHT22;480;48.124;11.578;2023-07-13T13:04:15;26.10;99.60
983;DHT22;480;48.124;11.578;2023-07-13T13:06:46;26.30;99.60
983;DHT22;480;48.124;11.578;2023-07-13T13:09:16;26.40;99.90
983;DHT22;480;48.124;11.578;2023-07-13T13:11:44;26.40;99.90
983;DHT22;480;48.124;11.578;2023-07-13T13:14:11;26.40;99.90
983;DHT22;480;48.124;11.578;2023-07-13T13:16:45;26.40;99.90
983;DHT22;480;48.124;11.578;2023-07-13T13:19:15;26.90;99.90
983;DHT22;480;48.124;11.578;2023-07-13T13:21:43;27.40;99.90
983;DHT22;480;48.124;11.578;2023-07-13T13:24:12;27.30;98.20
983;DHT22;480;48.124;11.578;2023-07-13T13:26:41;26.80;97.60
983;DHT22;480;48.124;11.578;2023-07-13T13:29:13;26.30;99.20
983;DHT22;480;48.124;11.578;2023-07-13T13:31:41;26.90;99.90
983;DHT22;480;48.124;11.578;2023-07-13T13:34:09;27.10;96.10
983;DHT22;480;48.124;11.578;2023-07-13T13:36:37;26.60;97.70
983;DHT22;480;48.124;11.578;2023-07-13T13:39:18;26.60;97.90
983;DHT22;480;48.124;11.578;2023-07-13T13:41:48;26.30;97.60
983;DHT22;480;48.124;11.578;2023-07-13T13:44:16;26.10;98.40
983;DHT22;480;48.124;11.578;2023-07-13T13:46:44;26.40;98.10
983;DHT22;480;48.124;11.578;2023-07-13T13:49:15;26.60;97.10
983;DHT22;480;48.124;11.578;2023-07-13T13:51:43;26.30;98.30
983;DHT22;480;48.124;11.578;2023-07-13T13:54:12;26.10;99.30
983;DHT22;480;48.124;11.578;2023-07-13T13:56:42;26.00;98.10
983;DHT22;480;48.124;11.578;2023-07-13T13:59:10;25.80;98.40
983;DHT22;480;48.124;11.578;2023-07-13T14:01:38;25.40;98.30
983;DHT22;480;48.124;11.578;2023-07-13T14:04:06;25.40;98.60
983;DHT22;480;48.124;11.578;2023-07-13T14:06:34;25.00;99.90
983;DHT22;480;48.124;11.578;2023-07-13T14:09:01;24.90;99.90
983;DHT22;480;48.124;11.578;2023-07-13T14:11:30;24.80;99.90
983;DHT22;480;48.124;11.578;2023-07-13T14:13:59;24.80;99.90
983;DHT22;480;48.124;11.578;2023-07-13T14:16:30;24.90;99.90
983;DHT22;480;48.124;11.578;2023-07-13T14:18:58;24.80;99.40
983;DHT22;480;48.124;11.578;2023-07-13T14:21:29;24.80;99.90
983;DHT22;480;48.124;11.578;2023-07-13T14:23:56;25.00;99.90
983;DHT22;480;48.124;11.578;2023-07-13T14:26:25;25.30;99.70
983;DHT22;480;48.124;11.578;2023-07-13T14:28:54;25.90;98.90
983;DHT22;480;48.124;11.578;2023-07-13T14:31:22;26.30;98.80
983;DHT22;480;48.124;11.578;2023-07-13T14:33:50;26.30;98.70
983;DHT22;480;48.124;11.578;2023-07-13T14:36:25;26.50;97.20
983;DHT22;480;48.124;11.578;2023-07-13T14:38:53;26.40;96.00
983;DHT22;480;48.124;11.578;2023-07-13T14:41:20;26.50;96.30
983;DHT22;480;48.124;11.578;2023-07-13T14:43:47;26.80;96.50
983;DHT22;480;48.124;11.578;2023-07-13T14:46:36;26.80;97.10
983;DHT22;480;48.124;11.578;2023-07-13T14:49:09;26.60;96.10
983;DHT22;480;48.124;11.578;2023-07-13T14:51:37;26.30;96.90
983;DHT22;480;48.124;11.578;2023-07-13T14:54:05;26.30;96.60
983;DHT22;480;48.124;11.578;2023-07-13T14:56:34;26.60;96.40
983;DHT22;480;48.124;11.578;2023-07-13T14:59:01;26.90;95.50
983;DHT22;480;48.124;11.578;2023-07-13T15:01:29;27.10;95.20
983;DHT22;480;48.124;11.578;2023-07-13T15:03:56;27.20;94.70
983;DHT22;480;48.124;11.578;2023-07-13T15:06:26;27.10;94.80
983;DHT22;480;48.124;11.578;2023-07-13T15:08:54;27.00;94.60
983;DHT22;480;48.124;11.578;2023-07-13T15:11:21;26.60;95.40
983;DHT22;480;48.124;11.578;2023-07-13T15:13:48;27.10;96.00
983;DHT22;480;48.124;11.578;2023-07-13T15:16:19;26.70;94.80
983;DHT22;480;48.124;11.578;2023-07-13T15:18:48;27.20;95.70
983;DHT22;480;48.124;11.578;2023-07-13T15:21:19;27.20;95.70
983;DHT22;480;48.124;11.578;2023-07-13T15:23:48;27.50;94.90
983;DHT22;480;48.124;11.578;2023-07-13T15:26:17;27.40;94.70
983;DHT22;480;48.124;11.578;2023-07-13T15:28:45;26.90;94.20
983;DHT22;480;48.124;11.578;2023-07-13T15:31:20;26.70;94.80
983;DHT22;480;48.124;11.578;2023-07-13T15:33:49;26.90;94.60
983;DHT22;480;48.124;11.578;2023-07-13T15:36:17;27.20;95.90
983;DHT22;480;48.124;11.578;2023-07-13T15:38:45;27.30;93.90
983;DHT22;480;48.124;11.578;2023-07-13T15:41:24;27.30;93.90
983;DHT22;480;48.124;11.578;2023-07-13T15:43:53;27.20;96.00
983;DHT22;480;48.124;11.578;2023-07-13T15:46:22;27.40;94.60
983;DHT22;480;48.124;11.578;2023-07-13T15:48:50;27.30;94.20
983;DHT22;480;48.124;11.578;2023-07-13T15:51:22;27.10;94.40
983;DHT22;480;48.124;11.578;2023-07-13T15:53:52;26.90;94.50
983;DHT22;480;48.124;11.578;2023-07-13T15:56:23;27.10;94.80
983;DHT22;480;48.124;11.578;2023-07-13T15:58:52;27.40;94.50
983;DHT22;480;48.124;11.578;2023-07-13T16:01:19;27.40;94.90
983;DHT22;480;48.124;11.578;2023-07-13T16:03:48;27.40;94.20
983;DHT22;480;48.124;11.578;2023-07-13T16:06:17;27.30;94.00
983;DHT22;480;48.124;11.578;2023-07-13T16:08:47;27.00;94.10
983;DHT22;480;48.124;11.578;2023-07-13T16:11:19;26.70;95.80
983;DHT22;480;48.124;11.578;2023-07-13T16:13:48;26.70;94.90
983;DHT22;480;48.124;11.578;2023-07-13T16:16:22;26.60;94.50
983;DHT22;480;48.124;11.578;2023-07-13T16:18:52;26.40;94.70
983;DHT22;480;48.124;11.578;2023-07-13T16:21:22;26.20;95.60
983;DHT22;480;48.124;11.578;2023-07-13T16:23:50;25.80;96.80
983;DHT22;480;48.124;11.578;2023-07-13T16:26:27;25.50;96.30
983;DHT22;480;48.124;11.578;2023-07-13T16:29:10;25.40;96.30